createdAt,value
2023-04-22T00:00:09.767Z,8.30
2023-04-22T00:02:37.496Z,6.73
2023-04-22T00:05:06.655Z,7.63
2023-04-22T00:07:34.582Z,10.80
2023-04-22T00:10:01.828Z,6.33
2023-04-22T00:12:29.978Z,8.17
2023-04-22T00:14:57.935Z,10.93
2023-04-22T00:17:25.652Z,8.00
2023-04-22T00:19:54.696Z,9.97
2023-04-22T00:22:27.013Z,8.23
2023-04-22T00:24:54.941Z,6.50
2023-04-22T00:27:22.440Z,6.87
2023-04-22T00:29:49.986Z,9.03
2023-04-22T00:32:17.509Z,10.67
2023-04-22T00:34:45.597Z,9.47
2023-04-22T00:37:14.157Z,8.00
2023-04-22T00:39:42.097Z,8.57
2023-04-22T00:42:10.446Z,12.10
2023-04-22T00:44:38.148Z,8.77
2023-04-22T00:47:05.495Z,10.03
2023-04-22T00:49:33.332Z,10.20
2023-04-22T00:52:01.353Z,10.53
2023-04-22T00:54:28.965Z,11.23
2023-04-22T00:57:00.136Z,10.93
2023-04-22T00:59:28.307Z,12.90
2023-04-22T01:01:56.472Z,11.47
2023-04-22T01:04:24.889Z,11.20
2023-04-22T01:06:55.554Z,9.87
2023-04-22T01:09:22.793Z,10.73
2023-04-22T01:11:50.455Z,11.00
2023-04-22T01:14:19.470Z,10.77
2023-04-22T01:16:46.712Z,10.77
2023-04-22T01:19:14.906Z,13.83
2023-04-22T01:21:42.675Z,13.33
2023-04-22T01:24:10.509Z,9.17
2023-04-22T01:26:38.178Z,11.07
2023-04-22T01:29:06.705Z,11.47
2023-04-22T01:31:33.500Z,8.90
2023-04-22T01:34:01.428Z,13.30
2023-04-22T01:36:28.954Z,10.77
2023-04-22T01:38:57.493Z,10.50
2023-04-22T01:41:25.242Z,17.67
2023-04-22T01:43:54.720Z,10.77
2023-04-22T01:46:22.383Z,11.83
2023-04-22T01:48:53.304Z,11.67
2023-04-22T01:51:21.063Z,9.17
2023-04-22T01:53:48.578Z,10.70
2023-04-22T01:56:21.825Z,14.83
2023-04-22T01:58:49.786Z,13.90
2023-04-22T02:01:17.893Z,9.73
2023-04-22T02:03:45.872Z,10.63
2023-04-22T02:06:14.147Z,10.70
2023-04-22T02:08:42.188Z,9.03
2023-04-22T02:11:10.238Z,9.20
2023-04-22T02:13:38.628Z,10.20
2023-04-22T02:16:07.798Z,9.23
2023-04-22T02:18:36.073Z,13.30
2023-04-22T02:21:03.811Z,9.73
2023-04-22T02:23:32.000Z,8.23
2023-04-22T02:25:59.075Z,10.30
2023-04-22T02:28:26.909Z,11.03
2023-04-22T02:30:54.908Z,8.30
2023-04-22T02:33:23.296Z,10.17
2023-04-22T02:35:51.958Z,9.37
2023-04-22T02:38:20.157Z,10.47
2023-04-22T02:40:48.323Z,9.83
2023-04-22T02:43:16.537Z,9.10
2023-04-22T02:45:44.946Z,10.20
2023-04-22T02:48:12.673Z,10.27
2023-04-22T02:50:40.626Z,11.57
2023-04-22T02:53:09.254Z,13.47
2023-04-22T02:55:37.076Z,10.33
2023-04-22T02:58:04.871Z,11.63
2023-04-22T03:00:32.880Z,10.90
2023-04-22T03:03:01.183Z,8.00
2023-04-22T03:05:29.839Z,7.63
2023-04-22T03:07:58.018Z,9.37
2023-04-22T03:10:26.156Z,10.23
2023-04-22T03:12:55.127Z,9.00
2023-04-22T03:15:22.846Z,9.23
2023-04-22T03:17:50.660Z,11.80
2023-04-22T03:20:18.792Z,9.87
2023-04-22T03:22:46.818Z,9.47
2023-04-22T03:25:14.439Z,10.53
2023-04-22T03:27:42.548Z,8.13
2023-04-22T03:30:12.039Z,11.60
2023-04-22T03:32:40.116Z,15.53
2023-04-22T03:35:09.934Z,13.43
2023-04-22T03:37:37.746Z,11.70
2023-04-22T03:40:09.791Z,10.13
2023-04-22T03:42:37.946Z,10.03
2023-04-22T03:45:08.474Z,9.83
2023-04-22T03:47:36.099Z,10.77
2023-04-22T03:50:04.361Z,7.47
2023-04-22T03:52:32.413Z,11.40
2023-04-22T03:55:00.372Z,8.77
2023-04-22T03:57:32.288Z,7.43
2023-04-22T03:59:59.930Z,8.97
2023-04-22T04:02:27.576Z,8.20
2023-04-22T04:04:55.794Z,9.30
2023-04-22T04:07:24.012Z,9.27
2023-04-22T04:09:52.070Z,9.80
2023-04-22T04:12:20.145Z,10.23
2023-04-22T04:14:48.089Z,9.10
2023-04-22T04:17:15.712Z,10.97
2023-04-22T04:19:43.730Z,10.07
2023-04-22T04:22:11.444Z,10.23
2023-04-22T04:24:44.854Z,9.97
2023-04-22T04:27:12.678Z,9.20
2023-04-22T04:29:41.573Z,9.17
2023-04-22T04:32:10.172Z,8.40
2023-04-22T04:34:37.974Z,8.00
2023-04-22T04:37:05.599Z,10.77
2023-04-22T04:39:33.762Z,13.17
2023-04-22T04:42:01.394Z,7.73
2023-04-22T04:44:31.832Z,13.37
2023-04-22T04:46:59.963Z,9.93
2023-04-22T04:49:27.851Z,11.50
2023-04-22T04:51:56.068Z,17.07
2023-04-22T04:54:24.447Z,9.00
2023-04-22T04:56:52.446Z,11.23
2023-04-22T04:59:20.520Z,12.80
2023-04-22T05:01:48.526Z,13.13
2023-04-22T05:04:16.854Z,12.40
2023-04-22T05:06:44.945Z,11.93
2023-04-22T05:09:12.913Z,11.57
2023-04-22T05:11:40.597Z,9.57
2023-04-22T05:14:08.699Z,14.10
2023-04-22T05:16:36.352Z,9.67
2023-04-22T05:19:08.578Z,13.50
2023-04-22T05:21:36.654Z,10.53
2023-04-22T05:24:05.387Z,10.20
2023-04-22T05:26:33.004Z,9.40
2023-04-22T05:29:00.772Z,11.60
2023-04-22T05:31:29.250Z,11.53
2023-04-22T05:33:57.336Z,14.97
2023-04-22T05:36:25.345Z,11.70
2023-04-22T05:38:53.428Z,9.83
2023-04-22T05:41:21.417Z,10.03
2023-04-22T05:43:48.937Z,12.07
2023-04-22T05:46:20.172Z,10.23
2023-04-22T05:48:48.865Z,9.93
2023-04-22T05:51:16.032Z,12.60
2023-04-22T05:53:44.192Z,12.57
2023-04-22T05:56:12.811Z,9.20
2023-04-22T05:58:40.763Z,13.03
2023-04-22T06:01:08.797Z,11.83
2023-04-22T06:03:36.893Z,8.77
2023-04-22T06:06:06.314Z,8.23
2023-04-22T06:08:34.349Z,11.67
2023-04-22T06:11:02.199Z,10.00
2023-04-22T06:13:33.167Z,11.53
2023-04-22T06:15:59.931Z,11.10
2023-04-22T06:18:28.477Z,11.50
2023-04-22T06:20:56.799Z,14.47
2023-04-22T06:23:24.955Z,10.73
2023-04-22T06:25:52.740Z,12.40
2023-04-22T06:28:20.330Z,13.50
2023-04-22T06:30:48.347Z,10.03
2023-04-22T06:33:16.361Z,9.33
2023-04-22T06:35:44.607Z,9.53
2023-04-22T06:38:12.023Z,11.30
2023-04-22T06:40:40.256Z,9.07
2023-04-22T06:43:08.362Z,10.13
2023-04-22T06:45:36.205Z,11.87
2023-04-22T06:48:03.873Z,12.27
2023-04-22T06:50:32.170Z,10.50
2023-04-22T06:53:02.931Z,9.57
2023-04-22T06:55:30.813Z,12.27
2023-04-22T06:57:58.514Z,9.20
2023-04-22T07:00:26.152Z,11.00
2023-04-22T07:02:54.327Z,11.00
2023-04-22T07:05:21.580Z,11.70
2023-04-22T07:07:49.671Z,10.70
2023-04-22T07:10:17.270Z,12.53
2023-04-22T07:12:45.408Z,15.70
2023-04-22T07:15:12.968Z,8.53
2023-04-22T07:17:40.225Z,12.47
2023-04-22T07:20:10.520Z,11.10
2023-04-22T07:22:38.377Z,10.70
2023-04-22T07:25:07.755Z,11.40
2023-04-22T07:27:44.184Z,11.63
2023-04-22T07:30:14.318Z,10.13
2023-04-22T07:32:53.606Z,10.30
2023-04-22T07:35:28.725Z,12.10
2023-04-22T07:37:56.326Z,11.73
2023-04-22T07:40:28.841Z,10.90
2023-04-22T07:43:13.117Z,10.73
2023-04-22T07:45:47.010Z,10.10
2023-04-22T07:48:15.264Z,12.10
2023-04-22T07:50:43.511Z,10.37
2023-04-22T07:53:10.958Z,11.13
2023-04-22T07:55:38.595Z,10.57
2023-04-22T07:58:06.892Z,10.00
2023-04-22T08:00:35.656Z,10.30
2023-04-22T08:03:03.571Z,10.03
2023-04-22T08:05:31.356Z,11.23
2023-04-22T08:07:59.476Z,10.10
2023-04-22T08:10:28.055Z,11.53
2023-04-22T08:12:55.798Z,11.10
2023-04-22T08:15:23.409Z,11.80
2023-04-22T08:17:51.511Z,10.40
2023-04-22T08:20:19.740Z,12.43
2023-04-22T08:22:47.564Z,10.00
2023-04-22T08:25:16.339Z,10.33
2023-04-22T08:27:43.904Z,11.07
2023-04-22T08:30:12.723Z,11.10
2023-04-22T08:32:40.396Z,10.63
2023-04-22T08:35:10.058Z,10.23
2023-04-22T08:37:37.688Z,10.43
2023-04-22T08:40:08.234Z,10.80
2023-04-22T08:42:36.217Z,11.83
2023-04-22T08:45:06.731Z,11.40
2023-04-22T08:47:34.930Z,9.57
2023-04-22T08:50:06.498Z,8.97
2023-04-22T08:52:34.178Z,7.20
2023-04-22T08:55:02.123Z,10.00
2023-04-22T08:57:29.613Z,10.03
2023-04-22T09:00:00.823Z,7.73
2023-04-22T09:02:28.344Z,8.20
2023-04-22T09:04:56.422Z,10.07
2023-04-22T09:07:25.428Z,9.33
2023-04-22T09:09:54.001Z,11.93
2023-04-22T09:12:21.701Z,10.00
2023-04-22T09:14:49.837Z,9.83
2023-04-22T09:17:18.949Z,10.03
2023-04-22T09:19:47.173Z,10.83
2023-04-22T09:22:16.214Z,8.70
2023-04-22T09:25:21.800Z,10.07
2023-04-22T09:27:52.193Z,9.53
2023-04-22T09:30:24.117Z,8.77
2023-04-22T09:33:14.815Z,11.30
2023-04-22T09:35:42.535Z,10.10
2023-04-22T09:38:11.211Z,10.57
2023-04-22T09:40:41.370Z,10.13
2023-04-22T09:43:09.562Z,13.23
2023-04-22T09:45:39.209Z,10.60
2023-04-22T09:48:11.479Z,11.17
2023-04-22T09:50:40.242Z,11.90
2023-04-22T09:53:08.578Z,10.70
2023-04-22T09:55:37.924Z,11.23
2023-04-22T09:58:29.790Z,9.60
2023-04-22T10:01:03.684Z,12.00
2023-04-22T10:03:31.917Z,11.80
2023-04-22T10:06:00.170Z,9.90
2023-04-22T10:08:31.076Z,9.57
2023-04-22T10:10:58.673Z,9.53
2023-04-22T10:13:26.501Z,10.40
2023-04-22T10:15:54.394Z,10.30
2023-04-22T10:18:29.211Z,10.83
2023-04-22T10:20:57.744Z,8.57
2023-04-22T10:23:25.235Z,9.97
2023-04-22T10:25:56.654Z,9.30
2023-04-22T10:28:25.142Z,11.13
2023-04-22T10:30:53.169Z,11.53
2023-04-22T10:33:34.013Z,10.63
2023-04-22T10:36:17.973Z,10.17
2023-04-22T10:38:51.486Z,9.67
2023-04-22T10:41:27.210Z,10.33
2023-04-22T10:44:21.734Z,12.95
2023-04-22T10:46:52.681Z,10.90
2023-04-22T10:49:23.554Z,9.90
2023-04-22T10:51:55.793Z,10.53
2023-04-22T10:54:31.422Z,10.57
2023-04-22T10:57:08.638Z,8.57
2023-04-22T11:02:19.637Z,8.80
2023-04-22T11:04:47.998Z,11.00
2023-04-22T11:07:20.771Z,8.82
2023-04-22T11:10:07.129Z,9.83
2023-04-22T11:12:39.849Z,8.98
2023-04-22T11:15:15.896Z,11.00
2023-04-22T11:17:44.337Z,7.88
2023-04-22T11:20:15.208Z,8.63
2023-04-22T11:22:43.346Z,8.23
2023-04-22T11:25:10.812Z,10.85
2023-04-22T11:27:38.519Z,9.07
2023-04-22T11:30:21.915Z,11.15
2023-04-22T11:32:51.256Z,8.70
2023-04-22T11:35:32.325Z,8.52
2023-04-22T11:38:01.651Z,9.73
2023-04-22T11:40:36.922Z,7.80
2023-04-22T11:43:08.920Z,9.05
2023-04-22T11:45:37.751Z,9.02
2023-04-22T11:48:07.017Z,10.55
2023-04-22T11:50:39.093Z,10.18
2023-04-22T11:53:15.552Z,10.38
2023-04-22T11:55:43.615Z,10.13
2023-04-22T11:58:13.254Z,11.02
2023-04-22T12:00:40.869Z,9.65
2023-04-22T12:03:15.452Z,8.52
2023-04-22T12:06:06.543Z,9.68
2023-04-22T12:09:01.559Z,8.98
2023-04-22T12:11:29.218Z,6.07
2023-04-22T12:13:57.216Z,9.18
2023-04-22T12:16:25.127Z,6.55
2023-04-22T12:18:53.400Z,8.07
2023-04-22T12:21:22.230Z,7.25
2023-04-22T12:23:53.118Z,7.82
2023-04-22T12:26:25.356Z,10.00
2023-04-22T12:28:53.509Z,9.10
2023-04-22T12:31:21.608Z,8.77
2023-04-22T12:33:49.664Z,8.38
2023-04-22T12:36:17.734Z,10.20
2023-04-22T12:38:45.247Z,9.65
2023-04-22T12:41:13.514Z,9.15
2023-04-22T12:43:41.323Z,10.13
2023-04-22T12:46:09.246Z,6.50
2023-04-22T12:48:56.942Z,6.78
2023-04-22T12:51:25.059Z,10.02
2023-04-22T12:53:53.637Z,13.30
2023-04-22T12:56:21.243Z,10.68
2023-04-22T12:58:48.952Z,9.70
2023-04-22T13:01:16.529Z,8.80
2023-04-22T13:03:44.628Z,11.63
2023-04-22T13:06:12.367Z,8.85
2023-04-22T13:08:39.962Z,8.93
2023-04-22T13:11:08.027Z,9.05
2023-04-22T13:13:35.774Z,7.68
2023-04-22T13:16:03.848Z,7.95
2023-04-22T13:18:31.880Z,11.85
2023-04-22T13:21:02.828Z,9.73
2023-04-22T13:23:31.090Z,9.50
2023-04-22T13:25:59.042Z,8.45
2023-04-22T13:28:27.250Z,7.93
2023-04-22T13:30:55.940Z,9.25
2023-04-22T13:33:23.552Z,9.60
2023-04-22T13:35:51.702Z,10.25
2023-04-22T13:38:19.509Z,10.50
2023-04-22T13:40:47.734Z,7.85
2023-04-22T13:43:15.786Z,11.05
2023-04-22T13:45:43.930Z,11.60
2023-04-22T13:48:12.337Z,9.70
2023-04-22T13:50:42.780Z,8.38
2023-04-22T13:53:11.941Z,9.60
2023-04-22T13:55:39.663Z,8.25
2023-04-22T13:58:07.777Z,6.93
2023-04-22T14:00:36.065Z,6.80
2023-04-22T14:03:04.109Z,9.50
2023-04-22T14:05:32.272Z,6.70
2023-04-22T14:08:00.280Z,6.55
2023-04-22T14:10:28.701Z,6.68
2023-04-22T14:12:56.999Z,6.32
2023-04-22T14:15:29.134Z,7.50
2023-04-22T14:17:57.249Z,5.00
2023-04-22T14:20:27.874Z,6.80
2023-04-22T14:22:56.083Z,6.40
2023-04-22T14:25:23.866Z,6.63
2023-04-22T14:27:51.501Z,6.03
2023-04-22T14:30:20.519Z,8.00
2023-04-22T14:32:51.809Z,6.05
2023-04-22T14:35:19.797Z,7.10
2023-04-22T14:37:47.910Z,6.60
2023-04-22T14:40:15.663Z,6.22
2023-04-22T14:42:43.290Z,5.07
2023-04-22T14:45:14.711Z,4.85
2023-04-22T14:47:42.746Z,3.50
2023-04-22T14:50:12.613Z,8.00
2023-04-22T14:52:40.377Z,7.80
2023-04-22T14:55:19.295Z,6.70
2023-04-22T14:57:51.190Z,7.30
2023-04-22T15:00:19.546Z,7.63
2023-04-22T15:02:47.226Z,11.75
2023-04-22T15:05:15.066Z,8.85
2023-04-22T15:07:45.487Z,6.70
2023-04-22T15:10:14.462Z,7.43
2023-04-22T15:12:42.554Z,5.80
2023-04-22T15:15:16.230Z,8.82
2023-04-22T15:17:43.977Z,7.18
2023-04-22T15:20:13.295Z,7.60
2023-04-22T15:22:44.043Z,6.75
2023-04-22T15:25:12.252Z,8.30
2023-04-22T15:27:39.919Z,9.15
2023-04-22T15:30:11.165Z,7.13
2023-04-22T15:32:42.486Z,7.57
2023-04-22T15:35:09.966Z,6.88
2023-04-22T15:37:37.521Z,6.82
2023-04-22T15:40:07.865Z,7.82
2023-04-22T15:42:36.162Z,8.15
2023-04-22T15:45:03.965Z,9.32
2023-04-22T15:47:32.040Z,9.32
2023-04-22T15:50:06.459Z,9.73
2023-04-22T15:52:35.089Z,8.13
2023-04-22T15:55:02.657Z,8.63
2023-04-22T15:57:34.494Z,6.78
2023-04-22T16:00:12.982Z,8.18
2023-04-22T16:02:41.100Z,7.60
2023-04-22T16:05:09.736Z,10.95
2023-04-22T16:07:37.660Z,6.60
2023-04-22T16:10:06.851Z,9.25
2023-04-22T16:12:34.972Z,12.02
2023-04-22T16:15:03.099Z,20.90
2023-04-22T16:17:31.346Z,9.80
2023-04-22T16:19:59.644Z,10.15
2023-04-22T16:22:27.814Z,5.82
2023-04-22T16:24:55.886Z,6.28
2023-04-22T16:27:23.870Z,7.10
2023-04-22T16:29:51.803Z,5.93
2023-04-22T16:32:19.801Z,4.57
2023-04-22T16:34:47.938Z,5.88
2023-04-22T16:37:16.272Z,7.75
2023-04-22T16:39:43.887Z,4.88
2023-04-22T16:42:11.736Z,7.72
2023-04-22T16:44:39.709Z,7.00
2023-04-22T16:47:07.756Z,7.50
2023-04-22T16:49:35.452Z,6.40
2023-04-22T16:52:03.966Z,9.93
2023-04-22T16:54:31.984Z,7.18
2023-04-22T16:57:00.047Z,6.97
2023-04-22T16:59:28.126Z,7.18
2023-04-22T17:01:57.405Z,8.73
2023-04-22T17:04:25.567Z,8.25
2023-04-22T17:06:53.725Z,7.63
2023-04-22T17:09:21.779Z,11.85
2023-04-22T17:11:49.895Z,9.10
2023-04-22T17:14:17.917Z,7.63
2023-04-22T17:16:45.932Z,7.50
2023-04-22T17:19:14.021Z,8.20
2023-04-22T17:21:42.036Z,8.90
2023-04-22T17:24:10.074Z,9.40
2023-04-22T17:26:38.001Z,9.83
2023-04-22T17:29:08.922Z,9.43
2023-04-22T17:31:36.535Z,13.73
2023-04-22T17:34:04.310Z,9.33
2023-04-22T17:36:32.057Z,8.27
2023-04-22T17:38:59.795Z,25.00
2023-04-22T17:41:28.080Z,48.53
2023-04-22T17:43:57.895Z,43.77
2023-04-22T17:46:27.813Z,14.53
2023-04-22T17:48:56.085Z,22.17
2023-04-22T17:51:23.636Z,15.30
2023-04-22T17:53:52.783Z,17.17
2023-04-22T17:56:20.414Z,14.00
2023-04-22T17:58:48.515Z,19.30
2023-04-22T18:01:15.798Z,28.20
2023-04-22T18:03:43.992Z,26.63
2023-04-22T18:06:12.392Z,21.67
2023-04-22T18:08:40.618Z,23.73
2023-04-22T18:11:08.441Z,25.43
2023-04-22T18:13:35.705Z,16.00
2023-04-22T18:16:03.691Z,19.50
2023-04-22T18:18:31.798Z,13.83
2023-04-22T18:21:00.904Z,12.77
2023-04-22T18:23:32.907Z,15.33
2023-04-22T18:26:00.912Z,15.87
2023-04-22T18:28:29.033Z,17.97
2023-04-22T18:30:56.679Z,16.23
2023-04-22T18:33:24.311Z,13.87
2023-04-22T18:35:52.299Z,14.93
2023-04-22T18:38:20.164Z,18.43
2023-04-22T18:40:48.131Z,13.97
2023-04-22T18:43:15.893Z,15.17
2023-04-22T18:45:43.969Z,15.70
2023-04-22T18:48:12.199Z,17.03
2023-04-22T18:50:40.304Z,16.97
2023-04-22T18:53:08.378Z,16.10
2023-04-22T18:55:36.532Z,17.13
2023-04-22T18:58:04.222Z,22.83
2023-04-22T19:00:35.376Z,18.27
2023-04-22T19:03:03.700Z,16.07
2023-04-22T19:05:31.415Z,16.27
2023-04-22T19:07:59.501Z,16.77
2023-04-22T19:10:27.066Z,16.60
2023-04-22T19:12:55.206Z,17.27
2023-04-22T19:15:22.939Z,19.83
2023-04-22T19:17:59.597Z,19.37
2023-04-22T19:20:27.750Z,15.40
2023-04-22T19:22:55.643Z,16.93
2023-04-22T19:25:24.662Z,15.57
2023-04-22T19:27:52.226Z,17.53
2023-04-22T19:30:20.076Z,16.53
2023-04-22T19:32:48.247Z,16.27
2023-04-22T19:35:21.935Z,15.97
2023-04-22T19:37:49.594Z,19.40
2023-04-22T19:40:18.595Z,16.87
2023-04-22T19:42:46.834Z,17.07
2023-04-22T19:45:14.311Z,15.97
2023-04-22T19:47:43.464Z,16.57
2023-04-22T19:50:12.912Z,20.07
2023-04-22T19:52:41.125Z,20.77
2023-04-22T19:55:10.004Z,18.73
2023-04-22T19:57:38.714Z,16.63
2023-04-22T20:00:11.095Z,17.10
2023-04-22T20:02:39.420Z,18.17
2023-04-22T20:05:08.582Z,17.37
2023-04-22T20:07:36.406Z,16.37
2023-04-22T20:10:07.229Z,14.73
2023-04-22T20:12:36.336Z,18.70
2023-04-22T20:15:06.034Z,21.33
2023-04-22T20:17:38.555Z,16.73
2023-04-22T20:20:14.638Z,17.70
2023-04-22T20:22:42.734Z,19.27
2023-04-22T20:25:33.765Z,20.33
2023-04-22T20:28:02.376Z,19.70
2023-04-22T20:30:30.698Z,17.20
2023-04-22T20:32:58.722Z,18.63
2023-04-22T20:35:28.689Z,18.33
2023-04-22T20:37:58.887Z,18.80
2023-04-22T20:40:27.054Z,20.53
2023-04-22T20:42:54.876Z,21.23
2023-04-22T20:45:22.452Z,21.50
2023-04-22T20:47:50.078Z,18.20
2023-04-22T20:50:19.223Z,18.03
2023-04-22T20:52:47.507Z,17.67
2023-04-22T20:55:16.000Z,18.00
2023-04-22T20:57:43.741Z,18.73
2023-04-22T21:00:13.433Z,16.07
2023-04-22T21:02:41.100Z,16.23
2023-04-22T21:05:12.250Z,19.77
2023-04-22T21:07:48.728Z,18.03
2023-04-22T21:10:19.224Z,19.27
2023-04-22T21:12:47.864Z,20.07
2023-04-22T21:15:17.510Z,18.40
2023-04-22T21:17:51.668Z,22.60
2023-04-22T21:20:20.342Z,21.07
2023-04-22T21:22:48.495Z,20.10
2023-04-22T21:25:18.886Z,19.40
2023-04-22T21:27:55.417Z,19.37
2023-04-22T21:30:30.430Z,19.55
2023-04-22T21:32:58.469Z,17.33
2023-04-22T21:35:25.668Z,20.60
2023-04-22T21:37:54.349Z,18.00
2023-04-22T21:40:38.654Z,19.30
2023-04-22T21:43:06.296Z,18.77
2023-04-22T21:45:42.041Z,20.10
2023-04-22T21:48:17.042Z,18.88
2023-04-22T21:50:44.595Z,17.20
2023-04-22T21:53:11.253Z,16.20
2023-04-22T21:55:39.463Z,16.23
2023-04-22T21:58:07.116Z,18.27
2023-04-22T22:00:34.519Z,18.47
2023-04-22T22:03:02.833Z,15.50
2023-04-22T22:05:31.384Z,16.97
2023-04-22T22:07:59.580Z,17.87
2023-04-22T22:10:27.789Z,16.73
2023-04-22T22:12:55.940Z,16.73
2023-04-22T22:15:24.385Z,23.00
2023-04-22T22:17:52.129Z,18.17
2023-04-22T22:20:22.853Z,19.20
2023-04-22T22:22:50.897Z,15.73
2023-04-22T22:25:18.493Z,17.23
2023-04-22T22:27:47.049Z,18.13
2023-04-22T22:30:18.746Z,17.87
2023-04-22T22:32:46.913Z,18.53
2023-04-22T22:35:14.335Z,19.50
2023-04-22T22:37:42.386Z,16.10
2023-04-22T22:40:11.332Z,18.60
2023-04-22T22:42:39.838Z,20.30
2023-04-22T22:45:10.707Z,18.60
2023-04-22T22:47:38.349Z,17.83
2023-04-22T22:50:07.744Z,19.30
2023-04-22T22:52:36.869Z,18.70
2023-04-22T22:55:06.018Z,18.27
2023-04-22T22:57:33.793Z,16.83
2023-04-22T23:00:01.848Z,17.47
2023-04-22T23:02:29.855Z,17.57
2023-04-22T23:04:58.174Z,15.83
2023-04-22T23:07:30.746Z,16.27
2023-04-22T23:09:58.931Z,16.43
2023-04-22T23:12:26.879Z,15.93
2023-04-22T23:14:54.909Z,17.30
2023-04-22T23:17:22.681Z,16.73
2023-04-22T23:19:52.075Z,21.50
2023-04-22T23:22:19.885Z,18.17
2023-04-22T23:24:49.480Z,16.27
2023-04-22T23:27:18.092Z,16.77
2023-04-22T23:29:47.131Z,17.70
2023-04-22T23:32:16.415Z,16.23
2023-04-22T23:34:46.118Z,16.67
2023-04-22T23:37:14.824Z,17.80
2023-04-22T23:39:42.660Z,17.97
2023-04-22T23:42:10.951Z,15.90
2023-04-22T23:44:39.105Z,17.40
2023-04-22T23:47:07.688Z,17.47
2023-04-22T23:49:35.366Z,19.13
2023-04-22T23:52:04.020Z,16.83
2023-04-22T23:54:32.968Z,17.27
2023-04-22T23:57:02.811Z,16.37
2023-04-22T23:59:31.889Z,19.63
